Time;durP1;ratioP1;P1;durP2;ratioP2;P2;SDS_P1;SDS_P2;PMS_P1;PMS_P2;Temp;Humidity;BMP_temperature;BMP_pressure;BME280_temperature;BME280_humidity;BME280_pressure;Samples;Min_cycle;Max_cycle;Signal;HPM_P1;HPM_P2
2021/03/16 00:01:20;;;;;;;0.93;0.88;;;;;;;;;;5011161;28;20187;-63
2021/03/16 00:03:46;;;;;;;0.50;0.50;;;;;;;;;;5011075;28;20180;-64
2021/03/16 00:06:12;;;;;;;0.80;0.80;;;;;;;;;;5008437;28;20609;-63
2021/03/16 00:08:38;;;;;;;0.80;0.80;;;;;;;;;;5004591;28;20526;-63
2021/03/16 00:11:04;;;;;;;0.47;0.47;;;;;;;;;;5000425;28;20243;-64
2021/03/16 00:13:30;;;;;;;0.63;0.63;;;;;;;;;;5012188;28;20207;-64
2021/03/16 00:15:56;;;;;;;0.87;0.87;;;;;;;;;;5010406;28;20413;-64
2021/03/16 00:18:22;;;;;;;0.60;0.60;;;;;;;;;;5000079;28;20441;-64
2021/03/16 00:20:48;;;;;;;0.50;0.50;;;;;;;;;;5002614;28;20421;-64
2021/03/16 00:23:14;;;;;;;0.52;0.52;;;;;;;;;;5005031;28;20178;-64
2021/03/16 00:25:40;;;;;;;0.50;0.50;;;;;;;;;;5005752;28;20170;-64
2021/03/16 00:28:06;;;;;;;0.40;0.40;;;;;;;;;;5013247;28;20209;-63
2021/03/16 00:30:33;;;;;;;0.68;0.68;;;;;;;;;;5010023;28;20206;-63
2021/03/16 00:32:59;;;;;;;0.50;0.50;;;;;;;;;;5012658;28;20223;-64
2021/03/16 00:35:25;;;;;;;0.70;0.70;;;;;;;;;;5011001;28;20169;-64
2021/03/16 00:37:51;;;;;;;0.67;0.67;;;;;;;;;;5012598;28;20208;-63
2021/03/16 00:40:17;;;;;;;0.60;0.60;;;;;;;;;;5011114;28;20420;-64
2021/03/16 00:42:43;;;;;;;1.45;1.45;;;;;;;;;;5010295;28;20212;-63
2021/03/16 00:45:10;;;;;;;0.40;0.40;;;;;;;;;;5014299;28;20190;-63
2021/03/16 00:47:36;;;;;;;1.40;1.13;;;;;;;;;;5031212;28;20196;-63
2021/03/16 00:50:04;;;;;;;0.60;0.60;;;;;;;;;;5020167;28;20777;-64
2021/03/16 00:52:30;;;;;;;0.80;0.80;;;;;;;;;;5027620;28;20246;-64
2021/03/16 00:54:56;;;;;;;1.00;1.00;;;;;;;;;;5021873;28;20254;-64
2021/03/16 00:57:22;;;;;;;1.42;1.33;;;;;;;;;;5011344;28;20197;-64
2021/03/16 00:59:48;;;;;;;0.50;0.50;;;;;;;;;;5029731;28;20232;-64
2021/03/16 01:02:14;;;;;;;1.38;1.27;;;;;;;;;;5030261;28;20193;-64
2021/03/16 01:04:40;;;;;;;0.50;0.50;;;;;;;;;;5031108;28;20170;-63
2021/03/16 01:07:06;;;;;;;0.50;0.50;;;;;;;;;;5015253;28;20245;-63
2021/03/16 01:09:32;;;;;;;0.50;0.50;;;;;;;;;;5017297;28;20184;-64
2021/03/16 01:11:58;;;;;;;0.40;0.40;;;;;;;;;;5029321;28;20215;-63
2021/03/16 01:14:24;;;;;;;0.75;0.75;;;;;;;;;;5031213;28;20177;-63
2021/03/16 01:16:50;;;;;;;0.60;0.60;;;;;;;;;;5014464;28;20228;-63
2021/03/16 01:19:16;;;;;;;0.50;0.50;;;;;;;;;;5010555;28;20190;-62
2021/03/16 01:21:42;;;;;;;0.75;0.70;;;;;;;;;;5012304;28;20210;-64
2021/03/16 01:24:08;;;;;;;0.60;0.60;;;;;;;;;;5012350;28;20183;-62
2021/03/16 01:26:34;;;;;;;0.60;0.60;;;;;;;;;;5014882;28;20206;-63
2021/03/16 01:29:02;;;;;;;0.80;0.80;;;;;;;;;;5030487;28;20224;-63
2021/03/16 01:31:28;;;;;;;0.63;0.63;;;;;;;;;;5021582;28;20681;-64
2021/03/16 01:33:54;;;;;;;0.85;0.85;;;;;;;;;;5018214;28;20541;-64
2021/03/16 01:36:20;;;;;;;0.50;0.50;;;;;;;;;;5034717;28;20509;-64
2021/03/16 01:38:46;;;;;;;1.00;1.00;;;;;;;;;;5029785;28;20201;-63
2021/03/16 01:41:12;;;;;;;0.73;0.73;;;;;;;;;;5023835;28;20433;-64
2021/03/16 01:43:38;;;;;;;2.70;1.15;;;;;;;;;;5021450;28;20507;-64
2021/03/16 01:46:06;;;;;;;0.50;0.50;;;;;;;;;;5026398;28;20201;-64
2021/03/16 01:48:32;;;;;;;0.50;0.50;;;;;;;;;;5014523;28;20503;-64
2021/03/16 01:51:00;;;;;;;0.43;0.43;;;;;;;;;;5014938;28;20197;-63
2021/03/16 01:53:26;;;;;;;0.50;0.50;;;;;;;;;;5027871;28;20205;-64
2021/03/16 01:55:53;;;;;;;0.70;0.70;;;;;;;;;;5014886;28;20199;-63
2021/03/16 01:58:19;;;;;;;1.65;1.55;;;;;;;;;;5014194;28;20585;-64
2021/03/16 02:00:45;;;;;;;0.90;0.90;;;;;;;;;;5031030;28;20186;-63
2021/03/16 02:03:12;;;;;;;0.70;0.70;;;;;;;;;;5034038;28;20175;-64
2021/03/16 02:05:38;;;;;;;0.63;0.63;;;;;;;;;;5016894;28;20261;-63
2021/03/16 02:08:16;;;;;;;1.25;0.60;;;;;;;;;;5024407;28;20203;-64
2021/03/16 02:10:48;;;;;;;0.55;0.55;;;;;;;;;;5013490;28;20236;-64
2021/03/16 02:13:38;;;;;;;0.50;0.50;;;;;;;;;;5014149;28;20210;-64
2021/03/16 02:16:07;;;;;;;0.50;0.50;;;;;;;;;;5014254;28;20183;-63
2021/03/16 02:18:35;;;;;;;0.50;0.50;;;;;;;;;;5015547;28;20194;-63
2021/03/16 02:21:13;;;;;;;0.50;0.50;;;;;;;;;;5032809;28;20216;-62
2021/03/16 02:23:44;;;;;;;0.50;0.50;;;;;;;;;;5031503;28;20306;-64
2021/03/16 02:26:17;;;;;;;1.48;1.48;;;;;;;;;;5025890;28;20191;-63
2021/03/16 02:29:01;;;;;;;0.52;0.52;;;;;;;;;;5012835;28;20298;-64
2021/03/16 02:31:28;;;;;;;2.13;2.03;;;;;;;;;;5013821;28;20294;-63
2021/03/16 02:33:55;;;;;;;0.40;0.40;;;;;;;;;;5017143;28;20307;-63
2021/03/16 02:36:22;;;;;;;0.75;0.75;;;;;;;;;;5031543;28;20227;-63
2021/03/16 02:38:51;;;;;;;0.98;0.98;;;;;;;;;;5014615;28;20222;-62
2021/03/16 02:41:18;;;;;;;0.60;0.60;;;;;;;;;;5013531;28;20696;-63
2021/03/16 02:43:44;;;;;;;0.40;0.40;;;;;;;;;;5030426;28;20181;-63
2021/03/16 02:46:10;;;;;;;0.68;0.68;;;;;;;;;;5030763;28;20199;-64
2021/03/16 02:48:37;;;;;;;0.52;0.52;;;;;;;;;;5013370;28;20194;-63
2021/03/16 02:51:04;;;;;;;1.35;0.90;;;;;;;;;;5013338;28;20241;-63
2021/03/16 02:53:31;;;;;;;0.47;0.47;;;;;;;;;;5031461;28;20181;-63
2021/03/16 02:55:57;;;;;;;0.88;0.88;;;;;;;;;;5014282;28;20213;-63
2021/03/16 02:58:23;;;;;;;0.50;0.50;;;;;;;;;;5013132;28;20254;-63
2021/03/16 03:00:51;;;;;;;1.35;1.33;;;;;;;;;;5014631;28;20178;-63
2021/03/16 03:03:17;;;;;;;0.70;0.70;;;;;;;;;;5013372;28;20181;-64
2021/03/16 03:05:43;;;;;;;0.50;0.50;;;;;;;;;;5031360;28;20184;-64
2021/03/16 03:08:10;;;;;;;0.80;0.80;;;;;;;;;;5017443;28;20202;-64
2021/03/16 03:10:36;;;;;;;0.65;0.65;;;;;;;;;;5027373;28;20917;-64
2021/03/16 03:13:03;;;;;;;0.80;0.80;;;;;;;;;;5022912;28;20197;-64
2021/03/16 03:15:29;;;;;;;0.40;0.40;;;;;;;;;;5013192;28;20177;-64
2021/03/16 03:17:55;;;;;;;1.13;1.13;;;;;;;;;;5026041;28;20193;-64
2021/03/16 03:20:21;;;;;;;0.40;0.40;;;;;;;;;;5021019;28;20665;-63
2021/03/16 03:22:56;;;;;;;0.60;0.60;;;;;;;;;;5012978;28;20505;-64
2021/03/16 03:25:28;;;;;;;0.70;0.70;;;;;;;;;;5022258;28;20271;-65
2021/03/16 03:27:59;;;;;;;0.82;0.82;;;;;;;;;;5014219;28;20615;-64
2021/03/16 03:30:25;;;;;;;0.63;0.63;;;;;;;;;;5031987;28;20204;-65
2021/03/16 03:32:52;;;;;;;0.50;0.50;;;;;;;;;;5022993;28;20206;-65
2021/03/16 03:35:19;;;;;;;0.80;0.80;;;;;;;;;;5012704;28;20191;-65
2021/03/16 03:37:47;;;;;;;0.50;0.50;;;;;;;;;;5020261;28;20190;-65
2021/03/16 03:40:14;;;;;;;0.50;0.50;;;;;;;;;;5031870;28;20180;-65
2021/03/16 03:42:40;;;;;;;0.80;0.80;;;;;;;;;;5025592;28;20228;-65
2021/03/16 03:45:07;;;;;;;0.50;0.50;;;;;;;;;;5020506;28;20260;-65
2021/03/16 03:47:33;;;;;;;0.60;0.60;;;;;;;;;;5030260;28;20684;-65
2021/03/16 03:49:59;;;;;;;0.50;0.50;;;;;;;;;;5031508;28;20222;-64
2021/03/16 03:52:26;;;;;;;0.50;0.50;;;;;;;;;;5027548;28;20463;-64
2021/03/16 03:54:53;;;;;;;1.33;1.23;;;;;;;;;;5014309;28;20180;-65
2021/03/16 03:57:19;;;;;;;0.88;0.88;;;;;;;;;;5012079;28;20538;-65
2021/03/16 03:59:47;;;;;;;1.02;0.77;;;;;;;;;;5014908;28;20707;-65
2021/03/16 04:02:13;;;;;;;0.80;0.80;;;;;;;;;;5031416;28;20190;-65
2021/03/16 04:04:40;;;;;;;0.50;0.50;;;;;;;;;;5020249;28;20200;-65
2021/03/16 04:07:09;;;;;;;0.50;0.50;;;;;;;;;;5015894;28;20310;-64
2021/03/16 04:09:35;;;;;;;0.50;0.50;;;;;;;;;;5017720;28;20208;-65
2021/03/16 04:12:03;;;;;;;0.80;0.80;;;;;;;;;;5012130;28;20205;-65
2021/03/16 04:14:29;;;;;;;1.05;1.05;;;;;;;;;;5012983;28;20632;-65
2021/03/16 04:16:55;;;;;;;0.50;0.50;;;;;;;;;;5016960;28;20168;-65
2021/03/16 04:19:21;;;;;;;0.63;0.63;;;;;;;;;;5011447;28;20208;-64
2021/03/16 04:21:48;;;;;;;0.50;0.50;;;;;;;;;;5012161;28;20744;-62
2021/03/16 04:24:14;;;;;;;0.40;0.40;;;;;;;;;;5011933;28;20174;-65
2021/03/16 04:26:40;;;;;;;0.40;0.40;;;;;;;;;;5011549;28;20251;-64
2021/03/16 04:29:06;;;;;;;0.63;0.60;;;;;;;;;;5011076;28;20197;-65
2021/03/16 04:31:32;;;;;;;0.88;0.82;;;;;;;;;;5020472;28;21089;-65
2021/03/16 04:33:58;;;;;;;0.50;0.50;;;;;;;;;;5031166;28;20176;-65
2021/03/16 04:36:24;;;;;;;1.27;1.20;;;;;;;;;;5023420;28;20208;-65
2021/03/16 04:38:50;;;;;;;0.50;0.50;;;;;;;;;;5011121;28;20198;-65
2021/03/16 04:41:16;;;;;;;1.03;0.83;;;;;;;;;;5030378;28;20193;-64
2021/03/16 04:43:45;;;;;;;0.60;0.60;;;;;;;;;;5031391;28;20411;-63
2021/03/16 04:46:11;;;;;;;0.77;0.77;;;;;;;;;;5022227;28;20196;-64
2021/03/16 04:48:37;;;;;;;0.67;0.67;;;;;;;;;;5021731;28;20216;-64
2021/03/16 04:51:03;;;;;;;0.50;0.50;;;;;;;;;;5010979;28;20872;-64
2021/03/16 04:53:29;;;;;;;0.82;0.82;;;;;;;;;;5025938;28;20212;-64
2021/03/16 04:55:55;;;;;;;0.68;0.68;;;;;;;;;;5016539;28;20185;-65
2021/03/16 04:58:21;;;;;;;0.60;0.60;;;;;;;;;;5011274;28;20203;-64
2021/03/16 05:00:47;;;;;;;0.50;0.50;;;;;;;;;;5026598;28;20230;-64
2021/03/16 05:03:13;;;;;;;0.50;0.50;;;;;;;;;;5031919;28;20208;-64
2021/03/16 05:05:39;;;;;;;0.50;0.50;;;;;;;;;;5019776;28;20216;-64
2021/03/16 05:08:05;;;;;;;0.90;0.75;;;;;;;;;;5020268;28;20990;-64
2021/03/16 05:10:31;;;;;;;0.50;0.50;;;;;;;;;;5014634;28;20556;-63
2021/03/16 05:12:57;;;;;;;0.60;0.60;;;;;;;;;;5015309;28;20177;-65
2021/03/16 05:15:23;;;;;;;0.60;0.60;;;;;;;;;;5025746;28;20177;-63
2021/03/16 05:17:49;;;;;;;0.40;0.40;;;;;;;;;;5024989;28;20515;-63
2021/03/16 05:20:15;;;;;;;0.40;0.40;;;;;;;;;;5014380;28;20181;-65
2021/03/16 05:22:41;;;;;;;0.50;0.50;;;;;;;;;;5015057;28;20413;-65
2021/03/16 05:25:07;;;;;;;0.75;0.75;;;;;;;;;;5015189;28;20170;-64
2021/03/16 05:27:33;;;;;;;1.30;1.25;;;;;;;;;;5015140;28;20240;-64
2021/03/16 05:30:00;;;;;;;0.50;0.50;;;;;;;;;;5014369;28;20197;-65
2021/03/16 05:32:25;;;;;;;0.50;0.50;;;;;;;;;;5017466;28;20209;-64
2021/03/16 05:34:52;;;;;;;0.40;0.40;;;;;;;;;;5029331;28;20178;-64
2021/03/16 05:37:18;;;;;;;1.85;1.75;;;;;;;;;;5021928;28;20503;-65
2021/03/16 05:39:44;;;;;;;0.60;0.60;;;;;;;;;;5014214;28;20764;-65
2021/03/16 05:42:10;;;;;;;0.60;0.60;;;;;;;;;;5014880;28;20409;-65
2021/03/16 05:44:37;;;;;;;0.50;0.50;;;;;;;;;;5029253;28;20430;-65
2021/03/16 05:47:03;;;;;;;1.45;0.80;;;;;;;;;;5023842;28;20198;-65
2021/03/16 05:49:29;;;;;;;0.60;0.60;;;;;;;;;;5026386;28;20188;-65
2021/03/16 05:51:56;;;;;;;0.50;0.50;;;;;;;;;;5015030;28;20768;-64
2021/03/16 05:54:22;;;;;;;0.68;0.68;;;;;;;;;;5014654;28;20674;-64
2021/03/16 05:56:48;;;;;;;0.50;0.50;;;;;;;;;;5014431;28;20576;-65
2021/03/16 05:59:14;;;;;;;0.60;0.60;;;;;;;;;;5013583;28;20658;-64
2021/03/16 06:01:40;;;;;;;0.70;0.70;;;;;;;;;;5014113;28;20240;-67
2021/03/16 06:04:06;;;;;;;0.90;0.90;;;;;;;;;;5022123;28;20205;-65
2021/03/16 06:06:32;;;;;;;0.60;0.60;;;;;;;;;;5015749;28;20201;-64
2021/03/16 06:08:58;;;;;;;0.40;0.40;;;;;;;;;;5027637;28;20202;-65
2021/03/16 06:11:27;;;;;;;0.60;0.60;;;;;;;;;;5019823;28;20206;-68
2021/03/16 06:13:54;;;;;;;0.50;0.50;;;;;;;;;;5016332;28;20170;-65
2021/03/16 06:16:20;;;;;;;0.77;0.77;;;;;;;;;;5031990;28;20653;-66
2021/03/16 06:18:48;;;;;;;0.60;0.60;;;;;;;;;;5039867;28;20202;-64
2021/03/16 06:21:17;;;;;;;0.60;0.60;;;;;;;;;;5036924;28;20253;-65
2021/03/16 06:23:52;;;;;;;2.80;1.08;;;;;;;;;;5033233;28;20599;-65
2021/03/16 06:26:18;;;;;;;0.75;0.75;;;;;;;;;;5039025;28;20256;-65
2021/03/16 06:28:45;;;;;;;0.70;0.70;;;;;;;;;;5029580;28;20225;-67
2021/03/16 06:31:20;;;;;;;0.55;0.55;;;;;;;;;;5037675;28;20237;-65
2021/03/16 06:33:46;;;;;;;0.85;0.85;;;;;;;;;;5038003;28;20183;-65
2021/03/16 06:36:12;;;;;;;0.50;0.50;;;;;;;;;;5027967;28;20553;-66
2021/03/16 06:38:38;;;;;;;0.55;0.55;;;;;;;;;;5043925;28;20235;-66
2021/03/16 06:41:17;;;;;;;0.60;0.60;;;;;;;;;;5032048;28;20185;-65
2021/03/16 06:43:52;;;;;;;1.20;1.13;;;;;;;;;;5036306;28;20957;-65
2021/03/16 06:46:28;;;;;;;0.60;0.60;;;;;;;;;;5035649;28;20325;-65
2021/03/16 06:48:54;;;;;;;0.50;0.50;;;;;;;;;;5026454;28;20569;-64
2021/03/16 06:51:24;;;;;;;0.70;0.70;;;;;;;;;;5017171;28;20212;-65
2021/03/16 06:53:50;;;;;;;1.75;1.65;;;;;;;;;;5020003;28;20185;-64
2021/03/16 06:56:26;;;;;;;1.00;0.90;;;;;;;;;;5020608;28;20176;-64
2021/03/16 06:58:52;;;;;;;1.50;1.40;;;;;;;;;;5011289;28;20449;-63
2021/03/16 07:01:18;;;;;;;0.50;0.50;;;;;;;;;;5011957;28;20178;-64
2021/03/16 07:03:45;;;;;;;0.80;0.80;;;;;;;;;;5011446;28;20174;-64
2021/03/16 07:06:16;;;;;;;1.10;0.90;;;;;;;;;;5011739;28;20181;-64
2021/03/16 07:08:42;;;;;;;0.40;0.40;;;;;;;;;;5012596;28;20702;-63
2021/03/16 07:11:12;;;;;;;1.23;1.13;;;;;;;;;;5012950;28;20206;-63
2021/03/16 07:13:39;;;;;;;0.57;0.57;;;;;;;;;;5012826;28;20170;-64
2021/03/16 07:16:06;;;;;;;0.40;0.40;;;;;;;;;;5012958;28;20253;-62
2021/03/16 07:18:39;;;;;;;0.85;0.70;;;;;;;;;;5012746;28;20201;-64
2021/03/16 07:21:06;;;;;;;0.70;0.70;;;;;;;;;;5012110;28;20209;-63
2021/03/16 07:23:36;;;;;;;0.60;0.60;;;;;;;;;;5012883;28;20188;-64
2021/03/16 07:26:02;;;;;;;0.50;0.50;;;;;;;;;;5013758;28;20209;-63
2021/03/16 07:28:29;;;;;;;4.63;2.00;;;;;;;;;;5013157;28;20233;-63
2021/03/16 07:30:55;;;;;;;0.75;0.75;;;;;;;;;;5022060;28;20202;-64
2021/03/16 07:33:21;;;;;;;1.15;1.05;;;;;;;;;;5026657;28;20547;-64
2021/03/16 07:35:48;;;;;;;1.70;1.60;;;;;;;;;;5025913;28;20170;-64
2021/03/16 07:38:14;;;;;;;0.82;0.82;;;;;;;;;;5023984;28;20247;-64
2021/03/16 07:40:41;;;;;;;0.93;0.93;;;;;;;;;;5025513;28;20177;-64
2021/03/16 07:43:11;;;;;;;1.08;1.08;;;;;;;;;;5025722;28;20182;-63
2021/03/16 07:45:37;;;;;;;0.98;0.98;;;;;;;;;;5028581;28;20181;-63
2021/03/16 07:48:23;;;;;;;0.73;0.73;;;;;;;;;;5026456;28;20637;-64
2021/03/16 07:50:49;;;;;;;1.13;1.02;;;;;;;;;;5024966;28;20199;-64
2021/03/16 07:53:25;;;;;;;1.00;0.93;;;;;;;;;;5030618;28;20169;-64
2021/03/16 07:55:51;;;;;;;0.52;0.52;;;;;;;;;;5031902;28;20174;-64
2021/03/16 07:58:24;;;;;;;0.50;0.50;;;;;;;;;;5035168;28;20215;-64
2021/03/16 08:00:50;;;;;;;0.57;0.57;;;;;;;;;;5017789;28;20195;-63
2021/03/16 08:03:23;;;;;;;1.57;1.47;;;;;;;;;;5012375;28;20174;-63
2021/03/16 08:05:51;;;;;;;0.40;0.40;;;;;;;;;;5012007;28;20497;-63
2021/03/16 08:08:17;;;;;;;0.70;0.70;;;;;;;;;;5011997;28;20601;-64
2021/03/16 08:10:44;;;;;;;0.95;0.95;;;;;;;;;;5009712;28;20205;-63
2021/03/16 08:13:14;;;;;;;0.50;0.50;;;;;;;;;;5011850;28;20546;-63
2021/03/16 08:15:40;;;;;;;0.80;0.80;;;;;;;;;;5011750;28;20192;-64
2021/03/16 08:18:07;;;;;;;0.50;0.50;;;;;;;;;;5011680;28;20204;-63
2021/03/16 08:20:33;;;;;;;0.70;0.70;;;;;;;;;;5011579;28;20874;-63
2021/03/16 08:23:07;;;;;;;0.60;0.60;;;;;;;;;;5011731;28;20229;-62
2021/03/16 08:25:33;;;;;;;1.15;1.15;;;;;;;;;;5011638;28;20164;-61
2021/03/16 08:28:06;;;;;;;0.85;0.85;;;;;;;;;;5011542;28;20186;-62
2021/03/16 08:30:32;;;;;;;0.57;0.57;;;;;;;;;;5011418;28;20264;-63
2021/03/16 08:32:59;;;;;;;0.65;0.65;;;;;;;;;;5011991;28;20219;-64
2021/03/16 08:35:25;;;;;;;0.80;0.80;;;;;;;;;;5010475;28;20257;-62
2021/03/16 08:37:51;;;;;;;0.50;0.50;;;;;;;;;;5010694;28;20198;-63
2021/03/16 08:40:21;;;;;;;0.80;0.80;;;;;;;;;;5010379;28;20172;-64
2021/03/16 08:42:47;;;;;;;0.77;0.77;;;;;;;;;;5009839;28;20188;-64
2021/03/16 08:45:13;;;;;;;1.65;1.65;;;;;;;;;;5010646;28;20191;-64
2021/03/16 08:47:39;;;;;;;2.35;2.25;;;;;;;;;;5010506;28;20195;-63
2021/03/16 08:50:05;;;;;;;0.70;0.70;;;;;;;;;;5010418;28;20178;-64
2021/03/16 08:52:31;;;;;;;1.08;1.08;;;;;;;;;;5011000;28;20214;-64
2021/03/16 08:54:58;;;;;;;0.60;0.60;;;;;;;;;;5010877;28;20186;-63
2021/03/16 08:57:31;;;;;;;0.40;0.40;;;;;;;;;;5010944;28;20193;-64
2021/03/16 08:59:58;;;;;;;0.93;0.93;;;;;;;;;;5010388;28;20600;-64
2021/03/16 09:02:24;;;;;;;0.70;0.70;;;;;;;;;;5010836;28;20180;-64
2021/03/16 09:04:50;;;;;;;0.60;0.60;;;;;;;;;;5010978;28;20173;-64
2021/03/16 09:07:25;;;;;;;0.60;0.60;;;;;;;;;;5010468;28;20233;-64
2021/03/16 09:10:07;;;;;;;1.95;1.25;;;;;;;;;;5010285;28;20175;-64
2021/03/16 09:12:35;;;;;;;1.73;1.63;;;;;;;;;;4991462;28;20250;-64
2021/03/16 09:15:11;;;;;;;1.48;1.38;;;;;;;;;;4991386;28;20552;-64
2021/03/16 09:17:39;;;;;;;0.50;0.50;;;;;;;;;;4991158;28;20709;-64
2021/03/16 09:20:35;;;;;;;0.80;0.80;;;;;;;;;;4990584;28;20177;-63
2021/03/16 09:23:03;;;;;;;1.30;1.30;;;;;;;;;;4979151;28;20190;-64
2021/03/16 09:25:31;;;;;;;0.80;0.80;;;;;;;;;;4991285;28;20222;-63
2021/03/16 09:28:00;;;;;;;0.63;0.63;;;;;;;;;;4990942;28;20627;-62
2021/03/16 09:30:30;;;;;;;0.95;0.95;;;;;;;;;;4990280;28;20669;-63
2021/03/16 09:32:56;;;;;;;0.93;0.93;;;;;;;;;;4991105;28;20188;-63
2021/03/16 09:35:23;;;;;;;1.08;1.08;;;;;;;;;;4991165;28;20662;-65
2021/03/16 09:37:50;;;;;;;1.17;1.10;;;;;;;;;;4991116;28;20662;-63
2021/03/16 09:40:17;;;;;;;1.20;1.20;;;;;;;;;;4990222;28;20209;-63
2021/03/16 09:42:45;;;;;;;1.23;1.13;;;;;;;;;;4990910;28;20659;-63
2021/03/16 09:45:30;;;;;;;0.60;0.60;;;;;;;;;;4991104;28;20180;-63
2021/03/16 09:47:57;;;;;;;0.52;0.52;;;;;;;;;;4990862;28;20566;-63
2021/03/16 09:50:30;;;;;;;0.82;0.82;;;;;;;;;;4991257;28;20823;-64
2021/03/16 09:53:00;;;;;;;0.52;0.52;;;;;;;;;;4994427;28;20185;-65
2021/03/16 09:55:27;;;;;;;0.70;0.65;;;;;;;;;;5009502;28;20287;-64
2021/03/16 09:57:53;;;;;;;0.60;0.60;;;;;;;;;;4994181;28;20208;-63
2021/03/16 10:00:21;;;;;;;0.63;0.63;;;;;;;;;;4993662;28;20180;-63
2021/03/16 10:02:47;;;;;;;1.02;0.98;;;;;;;;;;4994225;28;20171;-64
2021/03/16 10:05:14;;;;;;;0.93;0.93;;;;;;;;;;4994398;28;20190;-65
2021/03/16 10:07:40;;;;;;;0.80;0.80;;;;;;;;;;4993929;28;20202;-63
2021/03/16 10:10:08;;;;;;;0.60;0.60;;;;;;;;;;5008530;28;20174;-64
2021/03/16 10:12:34;;;;;;;0.50;0.50;;;;;;;;;;4993881;28;20198;-64
2021/03/16 10:15:00;;;;;;;1.38;1.38;;;;;;;;;;4994026;28;20176;-63
2021/03/16 10:17:27;;;;;;;0.55;0.55;;;;;;;;;;4993966;28;20209;-65
2021/03/16 10:19:53;;;;;;;0.50;0.50;;;;;;;;;;4993184;28;20218;-65
2021/03/16 10:22:19;;;;;;;0.60;0.60;;;;;;;;;;4993900;28;20658;-65
2021/03/16 10:24:53;;;;;;;1.63;1.52;;;;;;;;;;4994143;28;20556;-65
2021/03/16 10:27:27;;;;;;;0.85;0.82;;;;;;;;;;4993866;28;20866;-65
2021/03/16 10:29:53;;;;;;;0.85;0.85;;;;;;;;;;4993091;28;20184;-64
2021/03/16 10:32:19;;;;;;;0.95;0.95;;;;;;;;;;4993707;28;20207;-64
2021/03/16 10:34:45;;;;;;;0.73;0.73;;;;;;;;;;4993811;28;20171;-65
2021/03/16 10:37:21;;;;;;;1.25;1.25;;;;;;;;;;4993337;28;20172;-65
2021/03/16 10:39:47;;;;;;;0.55;0.55;;;;;;;;;;4993059;28;20176;-64
2021/03/16 10:42:13;;;;;;;1.48;1.48;;;;;;;;;;4993611;28;20536;-65
2021/03/16 10:44:40;;;;;;;0.70;0.70;;;;;;;;;;4993227;28;20180;-64
2021/03/16 10:47:06;;;;;;;0.60;0.60;;;;;;;;;;4993321;28;20181;-64
2021/03/16 10:49:32;;;;;;;0.60;0.60;;;;;;;;;;4992674;28;20265;-65
2021/03/16 10:51:59;;;;;;;0.88;0.88;;;;;;;;;;4993419;28;20209;-65
2021/03/16 10:54:25;;;;;;;0.40;0.40;;;;;;;;;;4993641;28;20257;-65
2021/03/16 10:56:54;;;;;;;1.55;1.33;;;;;;;;;;4993237;28;20175;-64
2021/03/16 10:59:20;;;;;;;0.80;0.80;;;;;;;;;;4992570;28;20217;-64
2021/03/16 11:01:46;;;;;;;1.20;1.20;;;;;;;;;;4993179;28;20189;-64
2021/03/16 11:04:12;;;;;;;1.80;1.65;;;;;;;;;;4993168;28;21182;-64
2021/03/16 11:06:38;;;;;;;0.60;0.60;;;;;;;;;;4993407;28;20560;-65
2021/03/16 11:09:04;;;;;;;0.70;0.70;;;;;;;;;;4992499;28;20205;-65
2021/03/16 11:11:30;;;;;;;0.60;0.60;;;;;;;;;;4993278;28;20488;-64
2021/03/16 11:13:56;;;;;;;1.80;1.77;;;;;;;;;;4993123;28;20177;-65
2021/03/16 11:16:22;;;;;;;0.52;0.52;;;;;;;;;;4992603;28;20417;-65
2021/03/16 11:18:48;;;;;;;0.93;0.93;;;;;;;;;;4992382;28;20716;-65
2021/03/16 11:21:14;;;;;;;0.80;0.80;;;;;;;;;;4992535;28;20491;-64
2021/03/16 11:23:40;;;;;;;0.85;0.85;;;;;;;;;;4992873;28;20443;-64
2021/03/16 11:26:06;;;;;;;1.40;1.30;;;;;;;;;;5007781;28;20525;-65
2021/03/16 11:28:32;;;;;;;1.53;1.43;;;;;;;;;;4993483;28;20491;-65
2021/03/16 11:30:58;;;;;;;0.70;0.70;;;;;;;;;;4993444;28;21317;-64
2021/03/16 11:33:24;;;;;;;0.60;0.60;;;;;;;;;;4993259;28;20178;-65
2021/03/16 11:35:50;;;;;;;4.03;2.25;;;;;;;;;;4992808;28;20757;-65
2021/03/16 11:38:17;;;;;;;0.75;0.75;;;;;;;;;;4992621;28;20263;-64
2021/03/16 11:40:43;;;;;;;1.20;1.20;;;;;;;;;;4992145;28;20180;-63
2021/03/16 11:43:09;;;;;;;0.40;0.40;;;;;;;;;;4992625;28;20173;-66
2021/03/16 11:45:35;;;;;;;0.50;0.50;;;;;;;;;;4992388;28;20180;-64
2021/03/16 11:48:01;;;;;;;2.58;1.25;;;;;;;;;;4992132;28;20219;-63
2021/03/16 11:50:27;;;;;;;0.50;0.50;;;;;;;;;;4991779;28;20171;-63
2021/03/16 11:52:53;;;;;;;0.88;0.88;;;;;;;;;;4992278;28;20470;-64
2021/03/16 11:55:19;;;;;;;0.70;0.60;;;;;;;;;;4992468;28;20203;-64
2021/03/16 11:57:45;;;;;;;0.50;0.50;;;;;;;;;;4991945;28;20256;-65
2021/03/16 12:00:12;;;;;;;0.60;0.60;;;;;;;;;;4991703;28;20176;-65
2021/03/16 12:02:38;;;;;;;1.63;1.45;;;;;;;;;;4991449;28;20908;-65
2021/03/16 12:05:04;;;;;;;0.60;0.60;;;;;;;;;;5007445;28;20300;-65
2021/03/16 12:07:31;;;;;;;5.88;1.45;;;;;;;;;;4992203;28;20205;-65
2021/03/16 12:09:57;;;;;;;0.77;0.77;;;;;;;;;;4991516;28;20179;-65
2021/03/16 12:12:24;;;;;;;1.05;1.05;;;;;;;;;;4992122;28;20577;-65
2021/03/16 12:14:50;;;;;;;0.50;0.50;;;;;;;;;;4991773;28;20203;-64
2021/03/16 12:17:16;;;;;;;0.40;0.40;;;;;;;;;;4992142;28;20195;-64
2021/03/16 12:19:42;;;;;;;0.47;0.47;;;;;;;;;;4991405;28;20386;-65
2021/03/16 12:22:08;;;;;;;1.00;1.00;;;;;;;;;;4991720;28;20518;-64
2021/03/16 12:24:34;;;;;;;0.77;0.77;;;;;;;;;;4992062;28;20192;-64
2021/03/16 12:27:00;;;;;;;1.45;0.85;;;;;;;;;;4991942;28;20420;-65
2021/03/16 12:29:26;;;;;;;3.25;1.10;;;;;;;;;;4991323;28;20218;-65
2021/03/16 12:31:52;;;;;;;1.23;0.63;;;;;;;;;;4991725;28;20210;-65
2021/03/16 12:34:18;;;;;;;0.70;0.70;;;;;;;;;;4991917;28;20174;-65
2021/03/16 12:36:44;;;;;;;0.93;0.93;;;;;;;;;;4992997;28;20405;-65
2021/03/16 12:39:10;;;;;;;0.73;0.73;;;;;;;;;;4991117;28;20693;-65
2021/03/16 12:41:36;;;;;;;3.08;1.98;;;;;;;;;;4991962;28;20236;-65
2021/03/16 12:44:02;;;;;;;0.40;0.40;;;;;;;;;;4991774;28;20687;-65
2021/03/16 12:46:28;;;;;;;0.85;0.85;;;;;;;;;;4991588;28;20185;-65
2021/03/16 12:48:55;;;;;;;0.63;0.63;;;;;;;;;;5006086;28;20303;-65
2021/03/16 12:51:21;;;;;;;0.93;0.85;;;;;;;;;;4991718;28;20285;-65
2021/03/16 12:53:48;;;;;;;1.60;1.35;;;;;;;;;;4998844;28;20174;-65
2021/03/16 12:56:14;;;;;;;0.60;0.60;;;;;;;;;;5010883;28;20545;-65
2021/03/16 12:58:41;;;;;;;0.65;0.65;;;;;;;;;;5010579;28;20238;-65
2021/03/16 13:01:07;;;;;;;1.45;1.23;;;;;;;;;;5010359;28;20216;-66
2021/03/16 13:03:33;;;;;;;1.25;1.15;;;;;;;;;;5010757;28;20223;-65
2021/03/16 13:05:59;;;;;;;0.50;0.50;;;;;;;;;;5010840;28;20177;-65
2021/03/16 13:08:25;;;;;;;0.95;0.95;;;;;;;;;;5009288;28;20243;-65
2021/03/16 13:10:51;;;;;;;0.60;0.60;;;;;;;;;;5010119;28;20175;-65
2021/03/16 13:13:17;;;;;;;0.68;0.68;;;;;;;;;;5010741;28;20182;-65
2021/03/16 13:15:43;;;;;;;0.40;0.40;;;;;;;;;;5009569;28;20219;-65
2021/03/16 13:18:10;;;;;;;0.53;0.53;;;;;;;;;;5010530;28;20636;-65
2021/03/16 13:20:37;;;;;;;1.25;1.23;;;;;;;;;;5010151;28;20444;-65
2021/03/16 13:23:03;;;;;;;0.50;0.50;;;;;;;;;;5010800;28;20676;-65
2021/03/16 13:25:29;;;;;;;0.75;0.60;;;;;;;;;;5013175;28;20259;-65
2021/03/16 13:27:55;;;;;;;0.40;0.40;;;;;;;;;;5014395;28;20290;-65
2021/03/16 13:30:21;;;;;;;0.40;0.40;;;;;;;;;;5013992;28;20172;-65
2021/03/16 13:32:47;;;;;;;0.68;0.68;;;;;;;;;;5014560;28;20207;-66
2021/03/16 13:35:13;;;;;;;1.17;0.85;;;;;;;;;;5014667;28;20244;-65
2021/03/16 13:37:40;;;;;;;0.65;0.65;;;;;;;;;;5014378;28;20200;-65
2021/03/16 13:40:06;;;;;;;0.90;0.90;;;;;;;;;;5013866;28;20226;-64
2021/03/16 13:42:32;;;;;;;0.77;0.77;;;;;;;;;;5014426;28;20707;-65
2021/03/16 13:44:58;;;;;;;0.80;0.80;;;;;;;;;;5014450;28;20188;-65
2021/03/16 13:47:25;;;;;;;0.85;0.85;;;;;;;;;;5014294;28;20276;-65
2021/03/16 13:49:51;;;;;;;0.50;0.50;;;;;;;;;;5013758;28;20184;-64
2021/03/16 13:52:17;;;;;;;0.60;0.60;;;;;;;;;;5014247;28;20192;-65
2021/03/16 13:54:42;;;;;;;0.80;0.80;;;;;;;;;;5013998;28;20655;-66
2021/03/16 13:57:09;;;;;;;0.40;0.40;;;;;;;;;;5013693;28;20419;-65
2021/03/16 13:59:35;;;;;;;1.40;0.70;;;;;;;;;;5027927;28;20205;-65
2021/03/16 14:02:01;;;;;;;0.40;0.40;;;;;;;;;;5013573;28;20209;-65
2021/03/16 14:04:27;;;;;;;0.80;0.80;;;;;;;;;;5014335;28;20419;-65
2021/03/16 14:06:53;;;;;;;0.77;0.77;;;;;;;;;;5014405;28;20216;-65
2021/03/16 14:09:21;;;;;;;0.82;0.82;;;;;;;;;;5013246;28;20929;-65
2021/03/16 14:11:46;;;;;;;0.40;0.40;;;;;;;;;;5014066;28;20262;-65
2021/03/16 14:14:13;;;;;;;0.40;0.40;;;;;;;;;;5012785;28;20177;-65
2021/03/16 14:16:39;;;;;;;1.25;0.95;;;;;;;;;;5013774;28;20463;-65
2021/03/16 14:19:04;;;;;;;0.40;0.40;;;;;;;;;;5013297;28;20588;-65
2021/03/16 14:21:31;;;;;;;0.70;0.70;;;;;;;;;;5013869;28;20232;-65
2021/03/16 14:23:57;;;;;;;0.47;0.47;;;;;;;;;;5013709;28;20427;-65
2021/03/16 14:26:23;;;;;;;0.40;0.40;;;;;;;;;;5013661;28;20715;-65
2021/03/16 14:28:49;;;;;;;0.50;0.50;;;;;;;;;;5012831;28;20577;-65
2021/03/16 14:31:17;;;;;;;0.50;0.50;;;;;;;;;;5013109;28;20571;-65
2021/03/16 14:33:43;;;;;;;0.50;0.50;;;;;;;;;;5013683;28;20207;-65
2021/03/16 14:36:09;;;;;;;0.65;0.65;;;;;;;;;;5012995;28;20256;-65
2021/03/16 14:38:35;;;;;;;0.63;0.63;;;;;;;;;;5013305;28;20668;-65
2021/03/16 14:41:01;;;;;;;0.70;0.70;;;;;;;;;;5012742;28;20404;-65
2021/03/16 14:43:27;;;;;;;0.60;0.60;;;;;;;;;;5011472;28;21139;-65